sensor_id;sensor_type;location;lat;lon;timestamp;temperature;humidity
23231;DHT22;11784;49.818;8.632;2023-07-31T00:01:59;21.60;69.80
23231;DHT22;11784;49.818;8.632;2023-07-31T00:04:25;21.60;69.80
23231;DHT22;11784;49.818;8.632;2023-07-31T00:06:50;21.60;71.20
23231;DHT22;11784;49.818;8.632;2023-07-31T00:09:16;21.60;71.00
23231;DHT22;11784;49.818;8.632;2023-07-31T00:11:41;21.50;70.90
23231;DHT22;11784;49.818;8.632;2023-07-31T00:14:07;21.50;71.00
23231;DHT22;11784;49.818;8.632;2023-07-31T00:16:32;21.50;71.00
23231;DHT22;11784;49.818;8.632;2023-07-31T00:18:58;21.40;71.60
23231;DHT22;11784;49.818;8.632;2023-07-31T00:21:23;21.40;71.90
23231;DHT22;11784;49.818;8.632;2023-07-31T00:23:49;21.40;72.00
23231;DHT22;11784;49.818;8.632;2023-07-31T00:26:14;21.40;71.00
23231;DHT22;11784;49.818;8.632;2023-07-31T00:28:40;21.40;71.40
23231;DHT22;11784;49.818;8.632;2023-07-31T00:31:05;21.40;71.90
23231;DHT22;11784;49.818;8.632;2023-07-31T00:33:31;21.30;71.10
23231;DHT22;11784;49.818;8.632;2023-07-31T00:35:57;21.30;71.00
23231;DHT22;11784;49.818;8.632;2023-07-31T00:38:22;21.30;70.20
23231;DHT22;11784;49.818;8.632;2023-07-31T00:40:48;21.30;70.70
23231;DHT22;11784;49.818;8.632;2023-07-31T00:43:13;21.30;69.80
23231;DHT22;11784;49.818;8.632;2023-07-31T00:45:39;21.30;69.60
23231;DHT22;11784;49.818;8.632;2023-07-31T00:48:05;21.30;70.20
23231;DHT22;11784;49.818;8.632;2023-07-31T00:50:34;21.30;69.30
23231;DHT22;11784;49.818;8.632;2023-07-31T00:53:00;21.30;69.50
23231;DHT22;11784;49.818;8.632;2023-07-31T00:55:26;21.30;68.90
23231;DHT22;11784;49.818;8.632;2023-07-31T00:57:52;21.40;69.50
23231;DHT22;11784;49.818;8.632;2023-07-31T01:00:21;21.40;68.50
23231;DHT22;11784;49.818;8.632;2023-07-31T01:02:47;21.40;68.70
23231;DHT22;11784;49.818;8.632;2023-07-31T01:05:13;21.40;67.70
23231;DHT22;11784;49.818;8.632;2023-07-31T01:10:26;21.40;68.00
23231;DHT22;11784;49.818;8.632;2023-07-31T01:12:53;21.40;68.00
23231;DHT22;11784;49.818;8.632;2023-07-31T01:15:19;21.40;67.70
23231;DHT22;11784;49.818;8.632;2023-07-31T01:17:46;21.30;68.00
23231;DHT22;11784;49.818;8.632;2023-07-31T01:20:21;21.30;68.00
23231;DHT22;11784;49.818;8.632;2023-07-31T01:26:18;21.40;67.70
23231;DHT22;11784;49.818;8.632;2023-07-31T01:29:01;21.30;67.70
23231;DHT22;11784;49.818;8.632;2023-07-31T01:31:29;21.40;68.10
23231;DHT22;11784;49.818;8.632;2023-07-31T01:33:59;21.40;68.20
23231;DHT22;11784;49.818;8.632;2023-07-31T01:36:25;21.40;67.90
23231;DHT22;11784;49.818;8.632;2023-07-31T01:38:51;21.40;67.90
23231;DHT22;11784;49.818;8.632;2023-07-31T01:41:17;21.40;68.50
23231;DHT22;11784;49.818;8.632;2023-07-31T01:43:44;21.40;68.40
23231;DHT22;11784;49.818;8.632;2023-07-31T01:46:09;21.40;68.40
23231;DHT22;11784;49.818;8.632;2023-07-31T01:48:35;21.40;67.80
23231;DHT22;11784;49.818;8.632;2023-07-31T01:51:02;21.40;68.20
23231;DHT22;11784;49.818;8.632;2023-07-31T01:53:29;21.40;68.50
23231;DHT22;11784;49.818;8.632;2023-07-31T01:55:55;21.40;68.60
23231;DHT22;11784;49.818;8.632;2023-07-31T01:58:20;21.40;68.50
23231;DHT22;11784;49.818;8.632;2023-07-31T02:00:46;21.40;68.40
23231;DHT22;11784;49.818;8.632;2023-07-31T02:03:11;21.40;68.50
23231;DHT22;11784;49.818;8.632;2023-07-31T02:05:47;21.40;68.30
23231;DHT22;11784;49.818;8.632;2023-07-31T02:08:13;21.40;68.80
23231;DHT22;11784;49.818;8.632;2023-07-31T02:10:39;21.40;68.70
23231;DHT22;11784;49.818;8.632;2023-07-31T02:13:04;21.40;69.20
23231;DHT22;11784;49.818;8.632;2023-07-31T02:15:30;21.40;68.80
23231;DHT22;11784;49.818;8.632;2023-07-31T02:17:56;21.30;68.90
23231;DHT22;11784;49.818;8.632;2023-07-31T02:20:21;21.30;68.80
23231;DHT22;11784;49.818;8.632;2023-07-31T02:22:47;21.30;69.10
23231;DHT22;11784;49.818;8.632;2023-07-31T02:25:13;21.30;69.30
23231;DHT22;11784;49.818;8.632;2023-07-31T02:27:38;21.30;69.40
23231;DHT22;11784;49.818;8.632;2023-07-31T02:30:04;21.30;69.80
23231;DHT22;11784;49.818;8.632;2023-07-31T02:32:30;21.30;69.60
23231;DHT22;11784;49.818;8.632;2023-07-31T02:34:55;21.30;70.10
23231;DHT22;11784;49.818;8.632;2023-07-31T02:37:21;21.30;69.90
23231;DHT22;11784;49.818;8.632;2023-07-31T02:39:46;21.30;70.20
23231;DHT22;11784;49.818;8.632;2023-07-31T02:42:13;21.30;70.20
23231;DHT22;11784;49.818;8.632;2023-07-31T02:44:39;21.20;70.10
23231;DHT22;11784;49.818;8.632;2023-07-31T02:47:04;21.30;70.60
23231;DHT22;11784;49.818;8.632;2023-07-31T02:49:30;21.20;71.50
23231;DHT22;11784;49.818;8.632;2023-07-31T02:51:55;21.20;70.70
23231;DHT22;11784;49.818;8.632;2023-07-31T02:54:21;21.20;70.90
23231;DHT22;11784;49.818;8.632;2023-07-31T02:56:47;21.10;71.60
23231;DHT22;11784;49.818;8.632;2023-07-31T02:59:13;21.10;71.40
23231;DHT22;11784;49.818;8.632;2023-07-31T03:01:38;21.10;71.60
23231;DHT22;11784;49.818;8.632;2023-07-31T03:04:04;21.20;71.70
23231;DHT22;11784;49.818;8.632;2023-07-31T03:06:30;21.10;71.60
23231;DHT22;11784;49.818;8.632;2023-07-31T03:08:55;21.10;70.90
23231;DHT22;11784;49.818;8.632;2023-07-31T03:11:21;21.10;71.40
23231;DHT22;11784;49.818;8.632;2023-07-31T03:13:46;21.10;70.50
23231;DHT22;11784;49.818;8.632;2023-07-31T03:16:12;21.00;70.80
23231;DHT22;11784;49.818;8.632;2023-07-31T03:18:38;21.00;70.80
23231;DHT22;11784;49.818;8.632;2023-07-31T03:21:04;21.00;70.90
23231;DHT22;11784;49.818;8.632;2023-07-31T03:23:30;21.00;70.80
23231;DHT22;11784;49.818;8.632;2023-07-31T03:26:00;21.00;71.20
23231;DHT22;11784;49.818;8.632;2023-07-31T03:28:26;21.00;71.30
23231;DHT22;11784;49.818;8.632;2023-07-31T03:30:52;21.00;72.10
23231;DHT22;11784;49.818;8.632;2023-07-31T03:33:18;21.00;72.20
23231;DHT22;11784;49.818;8.632;2023-07-31T03:35:43;20.90;72.90
23231;DHT22;11784;49.818;8.632;2023-07-31T03:38:09;21.00;74.00
23231;DHT22;11784;49.818;8.632;2023-07-31T03:40:34;21.00;74.70
23231;DHT22;11784;49.818;8.632;2023-07-31T03:43:00;21.00;75.60
23231;DHT22;11784;49.818;8.632;2023-07-31T03:45:25;21.00;75.50
23231;DHT22;11784;49.818;8.632;2023-07-31T03:47:51;21.00;76.00
23231;DHT22;11784;49.818;8.632;2023-07-31T03:50:17;20.90;76.00
23231;DHT22;11784;49.818;8.632;2023-07-31T03:52:42;20.90;76.20
23231;DHT22;11784;49.818;8.632;2023-07-31T03:55:08;20.80;76.80
23231;DHT22;11784;49.818;8.632;2023-07-31T03:57:33;20.80;76.20
23231;DHT22;11784;49.818;8.632;2023-07-31T03:59:59;20.80;76.60
23231;DHT22;11784;49.818;8.632;2023-07-31T04:02:25;20.80;76.80
23231;DHT22;11784;49.818;8.632;2023-07-31T04:04:50;20.80;77.20
23231;DHT22;11784;49.818;8.632;2023-07-31T04:07:16;20.70;75.80
23231;DHT22;11784;49.818;8.632;2023-07-31T04:09:41;20.70;75.70
23231;DHT22;11784;49.818;8.632;2023-07-31T04:12:07;20.70;75.80
23231;DHT22;11784;49.818;8.632;2023-07-31T04:14:32;20.70;75.70
23231;DHT22;11784;49.818;8.632;2023-07-31T04:16:58;20.70;75.90
23231;DHT22;11784;49.818;8.632;2023-07-31T04:19:24;20.70;76.10
23231;DHT22;11784;49.818;8.632;2023-07-31T04:21:49;20.70;75.60
23231;DHT22;11784;49.818;8.632;2023-07-31T04:24:15;20.70;75.10
23231;DHT22;11784;49.818;8.632;2023-07-31T04:26:41;20.80;75.50
23231;DHT22;11784;49.818;8.632;2023-07-31T04:29:06;20.70;75.40
23231;DHT22;11784;49.818;8.632;2023-07-31T04:31:33;20.70;75.10
23231;DHT22;11784;49.818;8.632;2023-07-31T04:33:59;20.70;75.30
23231;DHT22;11784;49.818;8.632;2023-07-31T04:36:24;20.80;74.80
23231;DHT22;11784;49.818;8.632;2023-07-31T04:38:50;20.80;74.80
23231;DHT22;11784;49.818;8.632;2023-07-31T04:41:15;20.80;74.70
23231;DHT22;11784;49.818;8.632;2023-07-31T04:43:41;20.80;74.50
23231;DHT22;11784;49.818;8.632;2023-07-31T04:46:07;20.80;74.00
23231;DHT22;11784;49.818;8.632;2023-07-31T04:48:32;20.70;74.60
23231;DHT22;11784;49.818;8.632;2023-07-31T04:50:58;20.70;74.00
23231;DHT22;11784;49.818;8.632;2023-07-31T04:53:23;20.70;74.90
23231;DHT22;11784;49.818;8.632;2023-07-31T04:55:49;20.60;74.10
23231;DHT22;11784;49.818;8.632;2023-07-31T04:58:14;20.60;74.40
23231;DHT22;11784;49.818;8.632;2023-07-31T05:00:40;20.70;74.10
23231;DHT22;11784;49.818;8.632;2023-07-31T05:03:05;20.60;74.20
23231;DHT22;11784;49.818;8.632;2023-07-31T05:05:32;20.60;74.00
23231;DHT22;11784;49.818;8.632;2023-07-31T05:07:57;20.60;74.60
23231;DHT22;11784;49.818;8.632;2023-07-31T05:10:23;20.70;74.40
23231;DHT22;11784;49.818;8.632;2023-07-31T05:12:48;20.70;74.60
23231;DHT22;11784;49.818;8.632;2023-07-31T05:15:14;20.70;73.90
23231;DHT22;11784;49.818;8.632;2023-07-31T05:17:39;20.70;73.60
23231;DHT22;11784;49.818;8.632;2023-07-31T05:20:06;20.70;73.90
23231;DHT22;11784;49.818;8.632;2023-07-31T05:22:31;20.70;73.80
23231;DHT22;11784;49.818;8.632;2023-07-31T05:24:57;20.70;73.80
23231;DHT22;11784;49.818;8.632;2023-07-31T05:27:22;20.70;74.00
23231;DHT22;11784;49.818;8.632;2023-07-31T05:29:48;20.70;74.30
23231;DHT22;11784;49.818;8.632;2023-07-31T05:32:13;20.70;74.00
23231;DHT22;11784;49.818;8.632;2023-07-31T05:34:39;20.80;73.10
23231;DHT22;11784;49.818;8.632;2023-07-31T05:37:05;20.80;73.10
23231;DHT22;11784;49.818;8.632;2023-07-31T05:39:31;20.80;73.70
23231;DHT22;11784;49.818;8.632;2023-07-31T05:41:56;20.80;74.00
23231;DHT22;11784;49.818;8.632;2023-07-31T05:44:22;20.80;73.60
23231;DHT22;11784;49.818;8.632;2023-07-31T05:46:47;20.80;74.00
23231;DHT22;11784;49.818;8.632;2023-07-31T05:49:13;20.80;73.70
23231;DHT22;11784;49.818;8.632;2023-07-31T05:51:38;20.80;73.90
23231;DHT22;11784;49.818;8.632;2023-07-31T05:54:04;20.80;73.00
23231;DHT22;11784;49.818;8.632;2023-07-31T05:56:30;20.80;73.60
23231;DHT22;11784;49.818;8.632;2023-07-31T05:58:56;20.90;73.60
23231;DHT22;11784;49.818;8.632;2023-07-31T06:01:22;20.90;73.20
23231;DHT22;11784;49.818;8.632;2023-07-31T06:03:48;20.90;73.50
23231;DHT22;11784;49.818;8.632;2023-07-31T06:06:13;20.90;73.70
23231;DHT22;11784;49.818;8.632;2023-07-31T06:08:40;20.90;73.50
23231;DHT22;11784;49.818;8.632;2023-07-31T06:11:06;21.00;72.70
23231;DHT22;11784;49.818;8.632;2023-07-31T06:13:34;20.90;72.80
23231;DHT22;11784;49.818;8.632;2023-07-31T06:15:59;20.90;72.80
23231;DHT22;11784;49.818;8.632;2023-07-31T06:18:25;20.90;73.60
23231;DHT22;11784;49.818;8.632;2023-07-31T06:20:50;20.90;74.10
23231;DHT22;11784;49.818;8.632;2023-07-31T06:23:19;21.00;74.10
23231;DHT22;11784;49.818;8.632;2023-07-31T06:25:44;21.00;73.00
23231;DHT22;11784;49.818;8.632;2023-07-31T06:28:10;21.00;73.30
23231;DHT22;11784;49.818;8.632;2023-07-31T06:30:36;21.00;73.50
23231;DHT22;11784;49.818;8.632;2023-07-31T06:33:01;21.10;73.40
23231;DHT22;11784;49.818;8.632;2023-07-31T06:35:27;21.10;73.30
23231;DHT22;11784;49.818;8.632;2023-07-31T06:37:52;21.20;73.20
23231;DHT22;11784;49.818;8.632;2023-07-31T06:40:18;21.20;73.20
23231;DHT22;11784;49.818;8.632;2023-07-31T06:42:44;21.20;72.70
23231;DHT22;11784;49.818;8.632;2023-07-31T06:45:10;21.20;72.30
23231;DHT22;11784;49.818;8.632;2023-07-31T06:47:35;21.20;73.10
23231;DHT22;11784;49.818;8.632;2023-07-31T06:50:01;21.30;72.30
23231;DHT22;11784;49.818;8.632;2023-07-31T06:52:27;21.30;72.70
23231;DHT22;11784;49.818;8.632;2023-07-31T06:55:17;21.30;72.50
23231;DHT22;11784;49.818;8.632;2023-07-31T06:57:44;21.30;72.90
23231;DHT22;11784;49.818;8.632;2023-07-31T07:00:10;21.30;71.70
23231;DHT22;11784;49.818;8.632;2023-07-31T07:02:35;21.30;72.00
23231;DHT22;11784;49.818;8.632;2023-07-31T07:05:01;21.30;71.80
23231;DHT22;11784;49.818;8.632;2023-07-31T07:07:26;21.30;72.50
23231;DHT22;11784;49.818;8.632;2023-07-31T07:09:52;21.30;72.30
23231;DHT22;11784;49.818;8.632;2023-07-31T07:12:18;21.30;72.40
23231;DHT22;11784;49.818;8.632;2023-07-31T07:14:44;21.30;72.50
23231;DHT22;11784;49.818;8.632;2023-07-31T07:17:11;21.40;73.20
23231;DHT22;11784;49.818;8.632;2023-07-31T07:19:40;21.40;72.20
23231;DHT22;11784;49.818;8.632;2023-07-31T07:22:05;21.50;72.40
23231;DHT22;11784;49.818;8.632;2023-07-31T07:24:31;21.50;72.40
23231;DHT22;11784;49.818;8.632;2023-07-31T07:26:56;21.50;72.60
23231;DHT22;11784;49.818;8.632;2023-07-31T07:29:22;21.60;72.60
23231;DHT22;11784;49.818;8.632;2023-07-31T07:31:48;21.60;72.80
23231;DHT22;11784;49.818;8.632;2023-07-31T07:34:13;21.70;72.70
23231;DHT22;11784;49.818;8.632;2023-07-31T07:36:39;21.70;72.50
23231;DHT22;11784;49.818;8.632;2023-07-31T07:39:04;21.70;72.20
23231;DHT22;11784;49.818;8.632;2023-07-31T07:41:30;21.70;72.90
23231;DHT22;11784;49.818;8.632;2023-07-31T07:43:55;21.80;72.60
23231;DHT22;11784;49.818;8.632;2023-07-31T07:46:21;21.70;72.20
23231;DHT22;11784;49.818;8.632;2023-07-31T07:48:47;21.80;72.20
23231;DHT22;11784;49.818;8.632;2023-07-31T07:51:12;21.80;72.50
23231;DHT22;11784;49.818;8.632;2023-07-31T07:53:38;21.90;71.90
23231;DHT22;11784;49.818;8.632;2023-07-31T07:56:04;21.90;71.80
23231;DHT22;11784;49.818;8.632;2023-07-31T07:58:30;21.90;72.30
23231;DHT22;11784;49.818;8.632;2023-07-31T08:00:55;21.90;72.50
23231;DHT22;11784;49.818;8.632;2023-07-31T08:03:21;21.90;72.40
23231;DHT22;11784;49.818;8.632;2023-07-31T08:05:46;21.90;72.40
23231;DHT22;11784;49.818;8.632;2023-07-31T08:08:16;22.00;72.90
23231;DHT22;11784;49.818;8.632;2023-07-31T08:10:43;22.00;73.10
23231;DHT22;11784;49.818;8.632;2023-07-31T08:13:12;22.00;72.60
23231;DHT22;11784;49.818;8.632;2023-07-31T08:15:37;22.10;72.40
23231;DHT22;11784;49.818;8.632;2023-07-31T08:18:04;22.10;72.60
23231;DHT22;11784;49.818;8.632;2023-07-31T08:20:29;22.10;72.40
23231;DHT22;11784;49.818;8.632;2023-07-31T08:22:55;22.10;72.60
23231;DHT22;11784;49.818;8.632;2023-07-31T08:25:21;22.10;72.70
23231;DHT22;11784;49.818;8.632;2023-07-31T08:27:46;22.10;73.30
23231;DHT22;11784;49.818;8.632;2023-07-31T08:30:12;22.10;73.30
23231;DHT22;11784;49.818;8.632;2023-07-31T08:32:37;22.10;72.90
23231;DHT22;11784;49.818;8.632;2023-07-31T08:35:03;22.10;72.90
23231;DHT22;11784;49.818;8.632;2023-07-31T08:37:29;22.20;72.30
23231;DHT22;11784;49.818;8.632;2023-07-31T08:39:55;22.20;72.20
23231;DHT22;11784;49.818;8.632;2023-07-31T08:42:20;22.20;73.20
23231;DHT22;11784;49.818;8.632;2023-07-31T08:44:46;22.30;72.10
23231;DHT22;11784;49.818;8.632;2023-07-31T08:47:13;22.30;71.90
23231;DHT22;11784;49.818;8.632;2023-07-31T08:49:39;22.40;71.90
23231;DHT22;11784;49.818;8.632;2023-07-31T08:52:06;22.40;71.50
23231;DHT22;11784;49.818;8.632;2023-07-31T08:54:32;22.50;71.10
23231;DHT22;11784;49.818;8.632;2023-07-31T08:56:59;22.50;71.50
23231;DHT22;11784;49.818;8.632;2023-07-31T08:59:27;22.60;70.90
23231;DHT22;11784;49.818;8.632;2023-07-31T09:01:55;22.60;71.30
23231;DHT22;11784;49.818;8.632;2023-07-31T09:04:23;22.60;70.70
23231;DHT22;11784;49.818;8.632;2023-07-31T09:06:49;22.60;71.40
23231;DHT22;11784;49.818;8.632;2023-07-31T09:09:15;22.70;70.40
23231;DHT22;11784;49.818;8.632;2023-07-31T09:11:41;22.70;70.70
23231;DHT22;11784;49.818;8.632;2023-07-31T09:14:08;22.70;71.30
23231;DHT22;11784;49.818;8.632;2023-07-31T09:16:35;22.70;70.10
23231;DHT22;11784;49.818;8.632;2023-07-31T09:19:01;22.70;69.80
23231;DHT22;11784;49.818;8.632;2023-07-31T09:21:30;22.80;70.20
23231;DHT22;11784;49.818;8.632;2023-07-31T09:23:56;22.80;71.50
23231;DHT22;11784;49.818;8.632;2023-07-31T09:26:37;22.90;71.60
23231;DHT22;11784;49.818;8.632;2023-07-31T09:29:07;23.00;69.80
23231;DHT22;11784;49.818;8.632;2023-07-31T09:31:43;23.00;70.20
23231;DHT22;11784;49.818;8.632;2023-07-31T09:34:10;23.10;69.30
23231;DHT22;11784;49.818;8.632;2023-07-31T09:36:46;23.10;68.60
23231;DHT22;11784;49.818;8.632;2023-07-31T09:39:13;23.10;68.90
23231;DHT22;11784;49.818;8.632;2023-07-31T09:41:43;23.10;68.60
23231;DHT22;11784;49.818;8.632;2023-07-31T09:44:09;23.10;69.10
23231;DHT22;11784;49.818;8.632;2023-07-31T09:46:35;23.20;68.20
23231;DHT22;11784;49.818;8.632;2023-07-31T09:51:32;23.30;66.40
23231;DHT22;11784;49.818;8.632;2023-07-31T09:54:03;23.30;65.80
23231;DHT22;11784;49.818;8.632;2023-07-31T09:56:32;23.30;66.40
23231;DHT22;11784;49.818;8.632;2023-07-31T09:58:58;23.30;66.30
23231;DHT22;11784;49.818;8.632;2023-07-31T10:01:24;23.30;68.10
23231;DHT22;11784;49.818;8.632;2023-07-31T10:03:50;23.30;68.10
23231;DHT22;11784;49.818;8.632;2023-07-31T10:06:16;23.30;68.50
23231;DHT22;11784;49.818;8.632;2023-07-31T10:08:46;23.30;68.70
23231;DHT22;11784;49.818;8.632;2023-07-31T10:11:13;23.40;68.50
23231;DHT22;11784;49.818;8.632;2023-07-31T10:13:39;23.50;68.20
23231;DHT22;11784;49.818;8.632;2023-07-31T10:16:07;23.60;68.60
23231;DHT22;11784;49.818;8.632;2023-07-31T10:18:34;23.60;68.50
23231;DHT22;11784;49.818;8.632;2023-07-31T10:21:01;23.80;68.30
23231;DHT22;11784;49.818;8.632;2023-07-31T10:23:27;23.80;67.40
23231;DHT22;11784;49.818;8.632;2023-07-31T10:25:53;23.90;67.00
23231;DHT22;11784;49.818;8.632;2023-07-31T10:28:22;24.00;66.40
23231;DHT22;11784;49.818;8.632;2023-07-31T10:30:50;24.00;66.20
23231;DHT22;11784;49.818;8.632;2023-07-31T10:33:17;24.10;65.30
23231;DHT22;11784;49.818;8.632;2023-07-31T10:35:44;24.10;65.60
23231;DHT22;11784;49.818;8.632;2023-07-31T10:38:12;24.20;65.40
23231;DHT22;11784;49.818;8.632;2023-07-31T10:40:39;24.20;65.80
23231;DHT22;11784;49.818;8.632;2023-07-31T10:43:05;24.20;65.20
23231;DHT22;11784;49.818;8.632;2023-07-31T10:45:42;24.20;65.30
23231;DHT22;11784;49.818;8.632;2023-07-31T10:48:16;24.20;64.50
23231;DHT22;11784;49.818;8.632;2023-07-31T10:50:54;24.10;64.40
23231;DHT22;11784;49.818;8.632;2023-07-31T10:53:30;24.10;63.40
23231;DHT22;11784;49.818;8.632;2023-07-31T10:56:00;24.10;63.60
23231;DHT22;11784;49.818;8.632;2023-07-31T10:58:26;24.10;63.00
23231;DHT22;11784;49.818;8.632;2023-07-31T11:00:55;24.10;62.60
23231;DHT22;11784;49.818;8.632;2023-07-31T11:03:25;24.10;63.20
23231;DHT22;11784;49.818;8.632;2023-07-31T11:06:01;24.20;63.30
23231;DHT22;11784;49.818;8.632;2023-07-31T11:08:33;24.30;62.90
23231;DHT22;11784;49.818;8.632;2023-07-31T11:13:28;24.30;61.60
23231;DHT22;11784;49.818;8.632;2023-07-31T11:15:54;24.30;61.90
23231;DHT22;11784;49.818;8.632;2023-07-31T11:18:19;24.30;62.10
23231;DHT22;11784;49.818;8.632;2023-07-31T11:20:45;24.20;62.70
23231;DHT22;11784;49.818;8.632;2023-07-31T11:23:11;24.10;61.50
23231;DHT22;11784;49.818;8.632;2023-07-31T11:25:40;24.00;61.90
23231;DHT22;11784;49.818;8.632;2023-07-31T11:28:14;23.90;62.10
23231;DHT22;11784;49.818;8.632;2023-07-31T11:30:40;23.80;63.80
23231;DHT22;11784;49.818;8.632;2023-07-31T11:33:07;23.70;64.50
23231;DHT22;11784;49.818;8.632;2023-07-31T11:35:34;23.60;65.60
23231;DHT22;11784;49.818;8.632;2023-07-31T11:38:00;23.60;65.80
23231;DHT22;11784;49.818;8.632;2023-07-31T11:40:26;23.50;66.70
23231;DHT22;11784;49.818;8.632;2023-07-31T11:42:57;23.50;66.90
23231;DHT22;11784;49.818;8.632;2023-07-31T11:45:25;23.50;67.50
23231;DHT22;11784;49.818;8.632;2023-07-31T11:47:50;23.50;67.60
23231;DHT22;11784;49.818;8.632;2023-07-31T11:50:16;23.50;67.60
23231;DHT22;11784;49.818;8.632;2023-07-31T11:52:44;23.60;68.00
23231;DHT22;11784;49.818;8.632;2023-07-31T11:55:10;23.60;67.40
23231;DHT22;11784;49.818;8.632;2023-07-31T11:57:40;23.60;67.60
23231;DHT22;11784;49.818;8.632;2023-07-31T12:00:09;23.60;68.20
23231;DHT22;11784;49.818;8.632;2023-07-31T12:02:37;23.60;69.50
23231;DHT22;11784;49.818;8.632;2023-07-31T12:05:05;23.70;68.20
23231;DHT22;11784;49.818;8.632;2023-07-31T12:07:46;23.60;68.20
23231;DHT22;11784;49.818;8.632;2023-07-31T12:13:05;23.70;68.40
23231;DHT22;11784;49.818;8.632;2023-07-31T12:15:41;23.70;67.80
23231;DHT22;11784;49.818;8.632;2023-07-31T12:18:13;23.70;68.10
23231;DHT22;11784;49.818;8.632;2023-07-31T12:20:47;23.70;67.90
23231;DHT22;11784;49.818;8.632;2023-07-31T12:25:40;23.70;68.30
23231;DHT22;11784;49.818;8.632;2023-07-31T12:28:07;23.70;67.70
23231;DHT22;11784;49.818;8.632;2023-07-31T12:30:39;23.70;68.10
23231;DHT22;11784;49.818;8.632;2023-07-31T12:33:15;23.60;67.60
23231;DHT22;11784;49.818;8.632;2023-07-31T12:35:46;23.60;68.60
23231;DHT22;11784;49.818;8.632;2023-07-31T12:38:12;23.60;68.60
23231;DHT22;11784;49.818;8.632;2023-07-31T12:40:39;23.60;67.70
23231;DHT22;11784;49.818;8.632;2023-07-31T12:43:05;23.50;68.00
23231;DHT22;11784;49.818;8.632;2023-07-31T12:45:31;23.50;67.40
23231;DHT22;11784;49.818;8.632;2023-07-31T12:47:58;23.40;67.90
23231;DHT22;11784;49.818;8.632;2023-07-31T12:50:23;23.40;67.70
23231;DHT22;11784;49.818;8.632;2023-07-31T12:52:49;23.40;68.20
23231;DHT22;11784;49.818;8.632;2023-07-31T12:55:15;23.40;68.50
23231;DHT22;11784;49.818;8.632;2023-07-31T12:57:40;23.40;68.10
23231;DHT22;11784;49.818;8.632;2023-07-31T13:00:07;23.40;67.40
23231;DHT22;11784;49.818;8.632;2023-07-31T13:02:33;23.30;67.20
23231;DHT22;11784;49.818;8.632;2023-07-31T13:04:58;23.40;67.90
23231;DHT22;11784;49.818;8.632;2023-07-31T13:07:24;23.40;67.20
23231;DHT22;11784;49.818;8.632;2023-07-31T13:09:51;23.40;67.40
23231;DHT22;11784;49.818;8.632;2023-07-31T13:12:16;23.50;67.40
23231;DHT22;11784;49.818;8.632;2023-07-31T13:14:42;23.50;67.30
23231;DHT22;11784;49.818;8.632;2023-07-31T13:17:07;23.60;68.00
23231;DHT22;11784;49.818;8.632;2023-07-31T13:19:33;23.80;68.20
23231;DHT22;11784;49.818;8.632;2023-07-31T13:21:58;23.90;65.80
23231;DHT22;11784;49.818;8.632;2023-07-31T13:24:24;23.90;64.60
23231;DHT22;11784;49.818;8.632;2023-07-31T13:26:49;24.00;64.80
23231;DHT22;11784;49.818;8.632;2023-07-31T13:29:15;24.00;64.90
23231;DHT22;11784;49.818;8.632;2023-07-31T13:31:40;24.10;64.90
23231;DHT22;11784;49.818;8.632;2023-07-31T13:34:06;24.10;65.00
23231;DHT22;11784;49.818;8.632;2023-07-31T13:36:31;24.10;64.60
23231;DHT22;11784;49.818;8.632;2023-07-31T13:38:59;24.10;64.60
23231;DHT22;11784;49.818;8.632;2023-07-31T13:41:25;24.00;65.70
23231;DHT22;11784;49.818;8.632;2023-07-31T13:43:50;23.90;65.10
23231;DHT22;11784;49.818;8.632;2023-07-31T13:46:16;23.90;65.70
23231;DHT22;11784;49.818;8.632;2023-07-31T13:48:41;23.90;66.10
23231;DHT22;11784;49.818;8.632;2023-07-31T13:51:07;23.90;65.70
23231;DHT22;11784;49.818;8.632;2023-07-31T13:53:32;23.80;65.90
23231;DHT22;11784;49.818;8.632;2023-07-31T13:55:58;23.80;66.50
23231;DHT22;11784;49.818;8.632;2023-07-31T13:58:23;23.70;65.90
23231;DHT22;11784;49.818;8.632;2023-07-31T14:00:49;23.70;66.30
23231;DHT22;11784;49.818;8.632;2023-07-31T14:03:14;23.70;66.70
23231;DHT22;11784;49.818;8.632;2023-07-31T14:05:40;23.60;66.40
23231;DHT22;11784;49.818;8.632;2023-07-31T14:08:05;23.60;66.80
23231;DHT22;11784;49.818;8.632;2023-07-31T14:10:31;23.60;66.80
23231;DHT22;11784;49.818;8.632;2023-07-31T14:12:56;23.60;66.60
23231;DHT22;11784;49.818;8.632;2023-07-31T14:15:22;23.60;66.70
23231;DHT22;11784;49.818;8.632;2023-07-31T14:17:47;23.60;66.80
23231;DHT22;11784;49.818;8.632;2023-07-31T14:20:13;23.50;66.70
23231;DHT22;11784;49.818;8.632;2023-07-31T14:22:39;23.50;67.30
23231;DHT22;11784;49.818;8.632;2023-07-31T14:25:04;23.50;67.50
23231;DHT22;11784;49.818;8.632;2023-07-31T14:27:30;23.50;68.00
23231;DHT22;11784;49.818;8.632;2023-07-31T14:29:56;23.50;68.20
23231;DHT22;11784;49.818;8.632;2023-07-31T14:32:22;23.40;68.20
23231;DHT22;11784;49.818;8.632;2023-07-31T14:34:50;23.40;67.90
23231;DHT22;11784;49.818;8.632;2023-07-31T14:37:16;23.50;68.30
23231;DHT22;11784;49.818;8.632;2023-07-31T14:39:41;23.40;67.50
23231;DHT22;11784;49.818;8.632;2023-07-31T14:42:07;23.40;68.10
23231;DHT22;11784;49.818;8.632;2023-07-31T14:44:32;23.40;68.10
23231;DHT22;11784;49.818;8.632;2023-07-31T14:46:58;23.40;67.90
23231;DHT22;11784;49.818;8.632;2023-07-31T14:49:23;23.40;68.70
23231;DHT22;11784;49.818;8.632;2023-07-31T14:51:49;23.40;67.20
23231;DHT22;11784;49.818;8.632;2023-07-31T14:54:14;23.40;67.60
23231;DHT22;11784;49.818;8.632;2023-07-31T14:56:40;23.40;68.10
23231;DHT22;11784;49.818;8.632;2023-07-31T14:59:05;23.40;67.80
23231;DHT22;11784;49.818;8.632;2023-07-31T15:01:33;23.40;67.40
23231;DHT22;11784;49.818;8.632;2023-07-31T15:03:58;23.40;67.00
23231;DHT22;11784;49.818;8.632;2023-07-31T15:06:24;23.40;67.00
23231;DHT22;11784;49.818;8.632;2023-07-31T15:08:49;23.40;67.20
23231;DHT22;11784;49.818;8.632;2023-07-31T15:11:15;23.40;67.50
23231;DHT22;11784;49.818;8.632;2023-07-31T15:13:41;23.40;67.50
23231;DHT22;11784;49.818;8.632;2023-07-31T15:16:06;23.40;67.30
23231;DHT22;11784;49.818;8.632;2023-07-31T15:18:32;23.40;67.40
23231;DHT22;11784;49.818;8.632;2023-07-31T15:20:58;23.40;67.50
23231;DHT22;11784;49.818;8.632;2023-07-31T15:23:23;23.40;67.60
23231;DHT22;11784;49.818;8.632;2023-07-31T15:25:49;23.30;67.80
23231;DHT22;11784;49.818;8.632;2023-07-31T15:28:14;23.40;68.20
23231;DHT22;11784;49.818;8.632;2023-07-31T15:30:40;23.30;67.30
23231;DHT22;11784;49.818;8.632;2023-07-31T15:33:06;23.40;68.20
23231;DHT22;11784;49.818;8.632;2023-07-31T15:35:32;23.40;67.80
23231;DHT22;11784;49.818;8.632;2023-07-31T15:37:58;23.40;68.00
23231;DHT22;11784;49.818;8.632;2023-07-31T15:40:23;23.40;68.30
23231;DHT22;11784;49.818;8.632;2023-07-31T15:42:49;23.40;67.90